Hlavní strana
METAR-TAF:

METAR-TAF

Letiště :

Kramfors, Švédsko

zeměpisná šířka: 63-03N, zeměpisná délka: 017-46E, výška: 10 m

Aktuální stav počasí

Zpráva byla vytvořena před 20 minutami, v 03:50 UTC
vítr z různých směrů 2 kt
Teplota 12°C
Vlhkost vzduchu 94%
Tlak 1006 hPa
Viditelnost 10 km a více

METAR: ESNK 200350Z AUTO VRB02KT 9999 NCD 12/11 Q1006

Čas: 06:10 (04:10 UTC)


TAF: chybějící

Stav a předpovědi počasí z více než 4 000 letišť (zprávy METAR a TAF).

Červené a žluté tečky na mapě představují dostupné meteorologické stanice.

Když kurzor umístíte na tečku, zobrazí se název stanice.

Pak kliknutím zobrazíte stav a předpověď počasí.

Chcete-li změnit mapu, kliknutím na zelené tlačítko se znaménkem +mapu přiblížíte, kliknutím na zelené tlačítko se znaménkem – mapu oddálíte a kliknutím na zelené šipky přejdete na sousední mapy.


METAR-TAF: